createdAt,value
2024-05-09T00:00:35.514Z,54.93
2024-05-09T00:01:41.450Z,55.05
2024-05-09T00:02:43.797Z,54.60
2024-05-09T00:03:46.781Z,54.36
2024-05-09T00:04:49.344Z,54.82
2024-05-09T00:05:51.817Z,55.29
2024-05-09T00:06:54.186Z,54.98
2024-05-09T00:07:56.513Z,54.79
2024-05-09T00:08:58.893Z,54.51
2024-05-09T00:10:01.214Z,54.30
2024-05-09T00:11:03.980Z,54.44
2024-05-09T00:12:06.842Z,54.18
2024-05-09T00:13:11.482Z,53.96
2024-05-09T00:14:13.915Z,53.88
2024-05-09T00:15:16.533Z,54.01
2024-05-09T00:16:18.874Z,53.93
2024-05-09T00:17:21.253Z,54.10
2024-05-09T00:18:24.062Z,54.17
2024-05-09T00:19:27.637Z,54.33
2024-05-09T00:20:37.498Z,54.56
2024-05-09T00:21:43.827Z,54.94
2024-05-09T00:22:46.264Z,55.23
2024-05-09T00:23:48.726Z,55.13
2024-05-09T00:24:51.101Z,54.92
2024-05-09T00:25:53.548Z,54.86
2024-05-09T00:26:55.966Z,54.67
2024-05-09T00:27:58.404Z,54.45
2024-05-09T00:29:00.788Z,54.84
2024-05-09T00:30:04.244Z,54.56
2024-05-09T00:31:06.739Z,54.70
2024-05-09T00:32:09.124Z,55.08
2024-05-09T00:33:12.056Z,54.91
2024-05-09T00:34:14.917Z,54.99
2024-05-09T00:35:17.433Z,54.76
2024-05-09T00:36:19.769Z,54.90
2024-05-09T00:37:22.198Z,54.99
2024-05-09T00:38:24.548Z,54.96
2024-05-09T00:39:27.152Z,54.92
2024-05-09T00:40:39.570Z,54.85
2024-05-09T00:41:44.455Z,55.01
2024-05-09T00:42:48.264Z,54.81
2024-05-09T00:43:50.690Z,54.78
2024-05-09T00:44:53.099Z,55.13
2024-05-09T00:45:57.394Z,54.75
2024-05-09T00:47:00.381Z,55.18
2024-05-09T00:48:06.764Z,55.29
2024-05-09T00:49:10.755Z,55.26
2024-05-09T00:50:19.264Z,55.49
2024-05-09T00:51:25.519Z,55.11
2024-05-09T00:52:29.111Z,55.53
2024-05-09T00:53:31.845Z,55.43
2024-05-09T00:54:34.674Z,55.27
2024-05-09T00:55:38.399Z,55.47
2024-05-09T00:56:42.295Z,55.27
2024-05-09T00:57:45.682Z,55.20
2024-05-09T00:58:49.845Z,55.25
2024-05-09T00:59:52.761Z,55.23
2024-05-09T01:00:56.982Z,55.41
2024-05-09T01:02:01.292Z,55.54
2024-05-09T01:03:03.917Z,55.47
2024-05-09T01:04:07.377Z,55.68
2024-05-09T01:05:10.168Z,56.13
2024-05-09T01:06:12.978Z,56.12
2024-05-09T01:07:15.345Z,56.10
2024-05-09T01:08:18.825Z,56.31
2024-05-09T01:09:21.337Z,55.78
2024-05-09T01:10:28.223Z,55.74
2024-05-09T01:11:38.983Z,55.66
2024-05-09T01:12:41.485Z,55.51
2024-05-09T01:13:44.701Z,55.41
2024-05-09T01:14:47.190Z,55.44
2024-05-09T01:15:50.035Z,55.50
2024-05-09T01:16:52.589Z,55.53
2024-05-09T01:17:56.549Z,55.62
2024-05-09T01:19:00.245Z,56.17
2024-05-09T01:20:04.237Z,56.43
2024-05-09T01:21:10.237Z,56.82
2024-05-09T01:22:12.789Z,56.82
2024-05-09T01:23:16.430Z,56.95
2024-05-09T01:24:19.079Z,57.30
2024-05-09T01:25:21.503Z,57.17
2024-05-09T01:26:23.905Z,57.52
2024-05-09T01:27:26.276Z,57.29
2024-05-09T01:28:28.591Z,57.05
2024-05-09T01:29:31.020Z,57.12
2024-05-09T01:30:36.100Z,57.30
2024-05-09T01:31:40.014Z,57.34
2024-05-09T01:32:42.543Z,57.18
2024-05-09T01:33:45.248Z,57.55
2024-05-09T01:34:47.752Z,57.44
2024-05-09T01:35:50.046Z,57.26
2024-05-09T01:36:52.516Z,57.18
2024-05-09T01:37:54.948Z,57.14
2024-05-09T01:38:57.481Z,57.12
2024-05-09T01:39:59.805Z,57.38
2024-05-09T01:41:02.257Z,57.45
2024-05-09T01:42:05.558Z,57.37
2024-05-09T01:43:11.817Z,57.16
2024-05-09T01:44:14.741Z,57.12
2024-05-09T01:45:18.394Z,56.91
2024-05-09T01:46:20.778Z,57.37
2024-05-09T01:47:23.298Z,57.39
2024-05-09T01:48:25.988Z,58.26
2024-05-09T01:49:28.515Z,58.58
2024-05-09T01:51:36.156Z,59.00
2024-05-09T01:52:38.812Z,59.01
2024-05-09T01:53:41.119Z,59.04
2024-05-09T01:54:43.638Z,59.07
2024-05-09T01:55:46.156Z,59.18
2024-05-09T01:56:48.504Z,59.34
2024-05-09T01:57:50.917Z,59.20
2024-05-09T01:58:53.243Z,59.41
2024-05-09T01:59:55.743Z,59.21
2024-05-09T02:00:58.336Z,59.34
2024-05-09T02:02:00.986Z,59.41
2024-05-09T02:03:03.642Z,59.25
2024-05-09T02:04:06.728Z,59.30
2024-05-09T02:05:09.554Z,59.19
2024-05-09T02:06:12.219Z,58.95
2024-05-09T02:07:14.587Z,58.52
2024-05-09T02:08:19.351Z,58.29
2024-05-09T02:09:22.205Z,57.96
2024-05-09T02:10:31.763Z,57.97
2024-05-09T02:11:43.577Z,57.84
2024-05-09T02:12:45.986Z,58.32
2024-05-09T02:13:48.429Z,57.89
2024-05-09T02:14:52.398Z,57.89
2024-05-09T02:15:54.746Z,57.86
2024-05-09T02:16:57.072Z,57.89
2024-05-09T02:17:59.743Z,57.75
2024-05-09T02:19:02.278Z,57.64
2024-05-09T02:20:05.983Z,57.53
2024-05-09T02:21:09.758Z,57.73
2024-05-09T02:22:12.181Z,57.60
2024-05-09T02:23:14.738Z,57.93
2024-05-09T02:24:17.066Z,57.82
2024-05-09T02:25:21.697Z,58.13
2024-05-09T02:26:24.009Z,58.21
2024-05-09T02:27:26.478Z,58.57
2024-05-09T02:28:28.771Z,59.10
2024-05-09T02:29:31.396Z,59.16
2024-05-09T02:30:39.678Z,58.99
2024-05-09T02:31:45.315Z,58.90
2024-05-09T02:32:48.066Z,58.79
2024-05-09T02:33:50.903Z,58.56
2024-05-09T02:34:53.415Z,58.37
2024-05-09T02:35:55.851Z,58.47
2024-05-09T02:36:58.162Z,58.43
2024-05-09T02:38:00.941Z,58.61
2024-05-09T02:39:03.595Z,58.96
2024-05-09T02:40:09.130Z,59.11
2024-05-09T02:41:13.998Z,59.18
2024-05-09T02:42:16.369Z,59.42
2024-05-09T02:43:18.685Z,59.16
2024-05-09T02:44:21.407Z,59.52
2024-05-09T02:45:24.751Z,59.93
2024-05-09T02:46:27.102Z,59.81
2024-05-09T02:47:29.623Z,59.82
2024-05-09T02:48:32.226Z,60.00
2024-05-09T02:49:34.819Z,60.19
2024-05-09T02:50:39.551Z,60.17
2024-05-09T02:51:42.739Z,60.25
2024-05-09T02:52:45.150Z,59.93
2024-05-09T02:53:47.602Z,60.14
2024-05-09T02:54:50.093Z,60.41
2024-05-09T02:55:52.444Z,60.50
2024-05-09T02:56:54.882Z,60.75
2024-05-09T02:57:57.181Z,60.91
2024-05-09T02:58:59.596Z,60.85
2024-05-09T03:00:02.046Z,60.64
2024-05-09T03:01:04.544Z,60.74
2024-05-09T03:02:07.138Z,60.60
2024-05-09T03:03:15.088Z,60.82
2024-05-09T03:04:18.686Z,60.76
2024-05-09T03:05:21.251Z,60.67
2024-05-09T03:06:23.598Z,61.24
2024-05-09T03:07:25.874Z,61.46
2024-05-09T03:08:28.479Z,61.66
2024-05-09T03:09:30.906Z,61.75
2024-05-09T03:10:36.574Z,61.96
2024-05-09T03:11:40.906Z,62.09
2024-05-09T03:12:43.450Z,62.08
2024-05-09T03:13:45.979Z,62.01
2024-05-09T03:14:51.034Z,61.99
2024-05-09T03:15:53.449Z,61.95
2024-05-09T03:16:55.873Z,62.07
2024-05-09T03:17:59.965Z,62.12
2024-05-09T03:19:02.622Z,62.02
2024-05-09T03:20:09.126Z,62.01
2024-05-09T03:21:14.058Z,62.00
2024-05-09T03:22:16.503Z,62.04
2024-05-09T03:23:19.010Z,62.04
2024-05-09T03:24:21.374Z,62.08
2024-05-09T03:25:23.900Z,61.98
2024-05-09T03:26:26.228Z,61.83
2024-05-09T03:27:28.662Z,61.99
2024-05-09T03:28:30.986Z,61.82
2024-05-09T03:29:33.463Z,61.88
2024-05-09T03:30:41.241Z,61.66
2024-05-09T03:31:45.554Z,61.79
2024-05-09T03:32:48.356Z,61.69
2024-05-09T03:33:50.915Z,61.92
2024-05-09T03:34:53.350Z,61.95
2024-05-09T03:35:55.642Z,62.02
2024-05-09T03:36:57.930Z,62.02
2024-05-09T03:38:00.363Z,62.10
2024-05-09T03:39:02.792Z,61.87
2024-05-09T03:40:11.765Z,62.02
2024-05-09T03:41:20.313Z,62.08
2024-05-09T03:42:22.691Z,62.46
2024-05-09T03:43:24.953Z,62.45
2024-05-09T03:44:27.433Z,62.42
2024-05-09T03:45:29.904Z,62.26
2024-05-09T03:46:32.443Z,62.29
2024-05-09T03:47:35.683Z,62.34
2024-05-09T03:48:38.406Z,62.32
2024-05-09T03:49:41.024Z,62.25
2024-05-09T03:50:43.595Z,62.07
2024-05-09T03:51:46.745Z,62.29
2024-05-09T03:52:49.077Z,62.20
2024-05-09T03:53:51.474Z,61.90
2024-05-09T03:54:53.813Z,61.83
2024-05-09T03:55:56.849Z,61.86
2024-05-09T03:56:59.267Z,61.58
2024-05-09T03:58:01.597Z,61.39
2024-05-09T03:59:04.190Z,61.10
2024-05-09T04:00:14.494Z,61.01
2024-05-09T04:01:20.402Z,60.54
2024-05-09T04:02:23.096Z,60.68
2024-05-09T04:03:25.811Z,60.64
2024-05-09T04:04:28.439Z,60.60
2024-05-09T04:05:32.664Z,60.22
2024-05-09T04:06:35.289Z,60.05
2024-05-09T04:07:38.742Z,60.07
2024-05-09T04:08:41.339Z,59.83
2024-05-09T04:09:43.869Z,59.77
2024-05-09T04:10:46.496Z,59.86
2024-05-09T04:11:48.980Z,60.32
2024-05-09T04:12:53.121Z,60.50
2024-05-09T04:13:55.498Z,60.67
2024-05-09T04:14:58.035Z,60.38
2024-05-09T04:16:00.307Z,60.25
2024-05-09T04:17:02.691Z,60.31
2024-05-09T04:18:05.407Z,60.08
2024-05-09T04:19:07.994Z,60.28
2024-05-09T04:20:21.053Z,60.50
2024-05-09T04:21:31.460Z,60.91
2024-05-09T04:22:33.848Z,60.69
2024-05-09T04:23:36.329Z,60.68
2024-05-09T04:24:38.756Z,60.92
2024-05-09T04:25:45.777Z,60.23
2024-05-09T04:26:48.347Z,60.07
2024-05-09T04:27:55.778Z,58.58
2024-05-09T04:28:58.330Z,57.66
2024-05-09T04:30:00.824Z,57.76
2024-05-09T04:31:03.187Z,57.70
2024-05-09T04:32:06.271Z,57.39
2024-05-09T04:33:11.843Z,57.62
2024-05-09T04:34:16.246Z,57.42
2024-05-09T04:35:21.052Z,57.21
2024-05-09T04:36:23.455Z,56.91
2024-05-09T04:37:26.231Z,56.49
2024-05-09T04:38:29.775Z,56.00
2024-05-09T04:39:32.066Z,55.86
2024-05-09T04:40:36.766Z,55.73
2024-05-09T04:41:40.105Z,55.58
2024-05-09T04:42:42.768Z,55.38
2024-05-09T04:43:45.058Z,55.80
2024-05-09T04:44:48.220Z,55.75
2024-05-09T04:45:51.113Z,55.49
2024-05-09T04:46:53.584Z,55.49
2024-05-09T04:47:56.378Z,54.52
2024-05-09T04:48:58.928Z,54.16
2024-05-09T04:50:01.648Z,54.71
2024-05-09T04:51:04.838Z,53.83
2024-05-09T04:52:07.614Z,53.86
2024-05-09T04:53:11.266Z,54.24
2024-05-09T04:54:25.991Z,53.86
2024-05-09T04:55:36.926Z,53.45
2024-05-09T04:56:39.608Z,53.91
2024-05-09T04:57:42.163Z,53.76
2024-05-09T04:58:44.503Z,53.99
2024-05-09T04:59:46.894Z,53.76
2024-05-09T05:00:49.284Z,53.41
2024-05-09T05:01:51.920Z,53.50
2024-05-09T05:02:54.415Z,53.41
2024-05-09T05:03:57.247Z,53.08
2024-05-09T05:04:59.911Z,53.16
2024-05-09T05:06:02.616Z,52.63
2024-05-09T05:07:05.672Z,52.97
2024-05-09T05:08:15.023Z,52.79
2024-05-09T05:09:17.869Z,52.25
2024-05-09T05:10:25.488Z,52.42
2024-05-09T05:11:32.128Z,52.22
2024-05-09T05:12:52.272Z,52.38
2024-05-09T05:13:54.771Z,52.09
2024-05-09T05:14:57.331Z,52.02
2024-05-09T05:16:00.441Z,52.01
2024-05-09T05:17:02.921Z,51.77
2024-05-09T05:18:06.075Z,51.68
2024-05-09T05:19:12.671Z,51.21
2024-05-09T05:20:24.468Z,51.17
2024-05-09T05:21:33.547Z,49.92
2024-05-09T05:22:36.016Z,50.05
2024-05-09T05:23:40.986Z,49.51
2024-05-09T05:24:43.446Z,49.27
2024-05-09T05:25:47.538Z,49.05
2024-05-09T05:26:49.940Z,49.42
2024-05-09T05:27:52.607Z,49.32
2024-05-09T05:28:54.981Z,49.09
2024-05-09T05:29:57.579Z,49.68
2024-05-09T05:31:00.416Z,49.82
2024-05-09T05:32:02.760Z,49.66
2024-05-09T05:33:07.146Z,49.85
2024-05-09T05:34:09.761Z,49.60
2024-05-09T05:35:12.375Z,-1.00
2024-05-09T05:36:14.813Z,-1.00
2024-05-09T05:37:17.180Z,-1.00
2024-05-09T05:38:21.959Z,-1.00
2024-05-09T05:39:26.310Z,-1.00
2024-05-09T05:40:35.945Z,-1.00
2024-05-09T05:41:40.295Z,-1.00
2024-05-09T05:42:43.736Z,-1.00
2024-05-09T05:43:46.114Z,-1.00
2024-05-09T05:44:48.482Z,-1.00
2024-05-09T05:45:50.916Z,-1.00
2024-05-09T05:46:53.247Z,-1.00
2024-05-09T05:47:55.967Z,-1.00
2024-05-09T05:48:58.805Z,-1.00
2024-05-09T05:50:01.447Z,-1.00
2024-05-09T05:51:05.853Z,-1.00
2024-05-09T05:52:08.349Z,-1.00
2024-05-09T05:53:11.099Z,-1.00
2024-05-09T05:54:13.685Z,-1.00
2024-05-09T05:55:15.959Z,-1.00
2024-05-09T05:56:18.280Z,-1.00
2024-05-09T05:57:20.612Z,-1.00
2024-05-09T05:58:23.026Z,-1.00
2024-05-09T05:59:25.592Z,-1.00
2024-05-09T06:00:34.748Z,-1.00
2024-05-09T06:01:40.767Z,-1.00
2024-05-09T06:02:43.351Z,-1.00
2024-05-09T06:03:45.835Z,-1.00
2024-05-09T06:04:48.355Z,-1.00
2024-05-09T06:05:51.312Z,-1.00
2024-05-09T06:06:53.850Z,-1.00
2024-05-09T06:07:56.226Z,-1.00
2024-05-09T06:08:58.611Z,-1.00
2024-05-09T06:10:01.069Z,-1.00
2024-05-09T06:11:03.996Z,-1.00
2024-05-09T06:12:06.734Z,-1.00
2024-05-09T06:13:14.031Z,-1.00
2024-05-09T06:14:17.161Z,-1.00
2024-05-09T06:15:19.506Z,-1.00
2024-05-09T06:16:21.866Z,-1.00
2024-05-09T06:17:24.472Z,-1.00
2024-05-09T06:18:28.063Z,-1.00
2024-05-09T06:19:30.905Z,-1.00
2024-05-09T06:20:36.590Z,-1.00
2024-05-09T06:21:40.722Z,-1.00
2024-05-09T06:22:43.016Z,-1.00
2024-05-09T06:23:49.618Z,-1.00
2024-05-09T06:24:52.017Z,-1.00
2024-05-09T06:25:54.536Z,-1.00
2024-05-09T06:26:57.134Z,-1.00
2024-05-09T06:28:01.115Z,-1.00
2024-05-09T06:29:03.631Z,-1.00
2024-05-09T06:30:09.883Z,-1.00
2024-05-09T06:31:12.923Z,-1.00
2024-05-09T06:32:16.582Z,-1.00
2024-05-09T06:33:19.342Z,-1.00
2024-05-09T06:34:22.898Z,-1.00
2024-05-09T06:35:25.892Z,-1.00
2024-05-09T06:36:28.424Z,-1.00
2024-05-09T06:37:30.787Z,-1.00
2024-05-09T06:38:33.771Z,-1.00
2024-05-09T06:39:36.358Z,-1.00
2024-05-09T06:41:33.723Z,36.75
2024-05-09T06:42:36.248Z,37.59
2024-05-09T06:43:38.725Z,37.98
2024-05-09T06:44:41.131Z,36.53
2024-05-09T06:45:43.651Z,37.16
2024-05-09T06:46:46.702Z,36.60
2024-05-09T06:47:49.441Z,37.13
2024-05-09T06:48:53.032Z,36.86
2024-05-09T06:49:55.804Z,37.18
2024-05-09T06:50:58.748Z,36.86
2024-05-09T06:52:01.066Z,36.63
2024-05-09T06:53:03.435Z,36.77
2024-05-09T06:54:09.495Z,36.39
2024-05-09T06:55:11.792Z,36.23
2024-05-09T06:56:14.719Z,36.36
2024-05-09T06:57:17.004Z,36.22
2024-05-09T06:58:19.466Z,36.19
2024-05-09T06:59:21.946Z,36.13
2024-05-09T07:00:30.858Z,36.24
2024-05-09T07:01:40.834Z,36.20
2024-05-09T07:02:43.291Z,35.42
2024-05-09T07:03:45.760Z,35.48
2024-05-09T07:04:48.204Z,35.23
2024-05-09T07:05:51.079Z,35.31
2024-05-09T07:06:53.483Z,35.52
2024-05-09T07:07:55.911Z,35.55
2024-05-09T07:08:58.450Z,35.52
2024-05-09T07:10:00.812Z,34.61
2024-05-09T07:11:04.144Z,34.77
2024-05-09T07:12:07.436Z,34.88
2024-05-09T07:13:14.796Z,34.83
2024-05-09T07:14:17.605Z,34.35
2024-05-09T07:15:19.998Z,33.83
2024-05-09T07:16:22.464Z,32.91
2024-05-09T07:17:24.945Z,33.00
2024-05-09T07:18:27.732Z,32.72
2024-05-09T07:19:30.482Z,32.47
2024-05-09T07:20:34.968Z,32.65
2024-05-09T07:21:37.861Z,32.88
2024-05-09T07:22:40.221Z,32.62
2024-05-09T07:23:45.203Z,33.05
2024-05-09T07:24:48.530Z,33.49
2024-05-09T07:25:51.024Z,32.44
2024-05-09T07:26:53.506Z,32.92
2024-05-09T07:27:55.929Z,33.12
2024-05-09T07:28:58.253Z,32.93
2024-05-09T07:30:00.750Z,33.28
2024-05-09T07:31:03.140Z,33.34
2024-05-09T07:32:06.554Z,33.52
2024-05-09T07:33:09.164Z,33.55
2024-05-09T07:34:13.289Z,33.40
2024-05-09T07:35:15.835Z,33.61
2024-05-09T07:36:18.240Z,33.45
2024-05-09T07:37:20.670Z,32.77
2024-05-09T07:38:23.304Z,32.59
2024-05-09T07:39:25.667Z,31.95
2024-05-09T07:40:34.829Z,32.02
2024-05-09T07:41:39.205Z,30.94
2024-05-09T07:42:41.597Z,31.90
2024-05-09T07:43:44.656Z,31.98
2024-05-09T07:44:46.941Z,31.89
2024-05-09T07:45:53.632Z,31.91
2024-05-09T07:50:53.480Z,32.35
2024-05-09T07:52:23.899Z,32.65
2024-05-09T07:53:21.695Z,32.72
2024-05-09T07:53:37.983Z,32.10
2024-05-09T07:54:39.513Z,31.89
2024-05-09T07:55:42.090Z,32.47
2024-05-09T07:56:44.796Z,32.00
2024-05-09T07:57:47.258Z,32.27
2024-05-09T07:58:51.838Z,32.53
2024-05-09T07:59:54.648Z,32.68
2024-05-09T08:00:57.149Z,32.75
2024-05-09T08:01:59.821Z,32.33
2024-05-09T08:03:02.287Z,31.95
2024-05-09T08:04:04.773Z,31.83
2024-05-09T08:05:07.401Z,31.82
2024-05-09T08:06:09.944Z,31.56
2024-05-09T08:07:12.348Z,31.61
2024-05-09T08:08:14.671Z,31.04
2024-05-09T08:09:20.971Z,30.26
2024-05-09T08:10:28.560Z,30.48
2024-05-09T08:11:33.194Z,30.42
2024-05-09T08:12:35.705Z,30.64
2024-05-09T08:13:38.429Z,30.18
2024-05-09T08:14:40.819Z,30.49
2024-05-09T08:15:43.377Z,30.52
2024-05-09T08:16:45.690Z,30.25
2024-05-09T08:17:48.044Z,30.59
2024-05-09T08:18:50.719Z,30.69
2024-05-09T08:19:53.339Z,30.66
2024-05-09T08:20:55.882Z,30.48
2024-05-09T08:21:58.253Z,30.93
2024-05-09T08:23:00.639Z,30.52
2024-05-09T08:24:02.920Z,29.77
2024-05-09T08:25:06.064Z,29.94
2024-05-09T08:26:08.624Z,30.18
2024-05-09T08:27:10.887Z,30.48
2024-05-09T08:28:13.449Z,30.14
2024-05-09T08:29:16.148Z,29.24
2024-05-09T08:30:24.888Z,29.65
2024-05-09T08:31:32.414Z,29.07
2024-05-09T08:32:35.472Z,29.14
2024-05-09T08:33:38.267Z,29.11
2024-05-09T08:34:41.432Z,28.55
2024-05-09T08:35:43.818Z,28.17
2024-05-09T08:36:46.373Z,28.54
2024-05-09T08:37:50.044Z,27.61
2024-05-09T08:38:52.685Z,27.69
2024-05-09T08:39:55.095Z,27.56
2024-05-09T08:40:57.529Z,27.08
2024-05-09T08:42:02.793Z,26.76
2024-05-09T08:43:11.380Z,26.83
2024-05-09T08:44:15.277Z,26.28
2024-05-09T08:45:18.866Z,25.44
2024-05-09T08:46:21.482Z,25.25
2024-05-09T08:47:24.776Z,26.21
2024-05-09T08:48:27.376Z,26.39
2024-05-09T08:49:31.084Z,26.49
2024-05-09T08:50:38.830Z,26.55
2024-05-09T08:51:43.668Z,26.90
2024-05-09T08:52:46.092Z,25.64
2024-05-09T08:53:48.467Z,25.49
2024-05-09T08:54:51.244Z,24.93
2024-05-09T08:55:55.482Z,25.37
2024-05-09T08:56:58.811Z,25.33
2024-05-09T08:58:04.288Z,25.76
2024-05-09T08:59:08.962Z,26.41
2024-05-09T09:00:15.111Z,26.06
2024-05-09T09:01:21.468Z,26.92
2024-05-09T09:02:24.245Z,26.74
2024-05-09T09:03:29.527Z,26.39
2024-05-09T09:04:36.325Z,25.86
2024-05-09T09:05:41.064Z,26.09
2024-05-09T09:06:44.969Z,26.48
2024-05-09T09:07:48.466Z,25.46
2024-05-09T09:08:51.504Z,25.88
2024-05-09T09:09:55.157Z,26.07
2024-05-09T09:10:59.360Z,25.20
2024-05-09T09:12:01.952Z,24.87
2024-05-09T09:13:07.147Z,24.74
2024-05-09T09:14:09.614Z,24.77
2024-05-09T09:15:11.937Z,25.41
2024-05-09T09:16:14.473Z,25.60
2024-05-09T09:17:17.936Z,25.78
2024-05-09T09:18:20.562Z,25.53
2024-05-09T09:19:24.089Z,25.80
2024-05-09T09:20:35.332Z,25.25
2024-05-09T09:21:39.199Z,25.64
2024-05-09T09:22:41.484Z,25.67
2024-05-09T09:23:44.211Z,25.66
2024-05-09T09:24:46.726Z,25.34
2024-05-09T09:25:49.298Z,25.44
2024-05-09T09:26:51.772Z,25.07
2024-05-09T09:27:54.123Z,24.81
2024-05-09T09:29:01.557Z,24.52
2024-05-09T09:30:05.617Z,24.17
2024-05-09T09:31:09.675Z,23.62
2024-05-09T09:32:12.236Z,23.89
2024-05-09T09:33:14.734Z,23.27
2024-05-09T09:34:17.408Z,22.97
2024-05-09T09:35:20.026Z,23.85
2024-05-09T09:36:22.536Z,24.57
2024-05-09T09:37:30.146Z,24.65
2024-05-09T09:38:32.752Z,24.33
2024-05-09T09:39:41.892Z,25.06
2024-05-09T09:40:49.530Z,24.67
2024-05-09T09:41:53.262Z,24.54
2024-05-09T09:42:58.747Z,24.60
2024-05-09T09:44:02.480Z,23.69
2024-05-09T09:45:05.988Z,23.56
2024-05-09T09:46:12.444Z,23.22
2024-05-09T09:47:16.616Z,23.46
2024-05-09T09:48:20.651Z,24.11
2024-05-09T09:49:27.152Z,24.23
2024-05-09T09:50:34.381Z,23.86
2024-05-09T09:51:43.490Z,24.15
2024-05-09T09:52:47.300Z,23.84
2024-05-09T09:53:53.270Z,23.95
2024-05-09T09:54:57.977Z,22.62
2024-05-09T09:56:02.662Z,23.14
2024-05-09T09:57:05.607Z,23.54
2024-05-09T09:58:10.827Z,23.53
2024-05-09T09:59:15.505Z,23.49
2024-05-09T10:00:24.467Z,23.03
2024-05-09T10:01:34.811Z,22.43
2024-05-09T10:02:37.325Z,22.46
2024-05-09T10:03:40.042Z,22.40
2024-05-09T10:04:42.649Z,22.18
2024-05-09T10:05:47.277Z,22.06
2024-05-09T10:06:55.243Z,22.04
2024-05-09T10:07:59.225Z,22.48
2024-05-09T10:09:02.288Z,22.40
2024-05-09T10:10:07.044Z,22.61
2024-05-09T10:11:09.725Z,21.85
2024-05-09T10:12:14.423Z,22.08
2024-05-09T10:13:16.938Z,22.03
2024-05-09T10:14:22.841Z,22.29
2024-05-09T10:15:25.268Z,22.29
2024-05-09T10:16:31.779Z,21.80
2024-05-09T10:17:34.832Z,21.93
2024-05-09T10:18:41.430Z,22.09
2024-05-09T10:19:44.778Z,22.44
2024-05-09T10:20:49.330Z,22.52
2024-05-09T10:21:51.783Z,22.87
2024-05-09T10:22:54.310Z,23.29
2024-05-09T10:24:03.005Z,22.81
2024-05-09T10:25:07.935Z,23.13
2024-05-09T10:26:10.294Z,23.37
2024-05-09T10:27:12.617Z,23.71
2024-05-09T10:28:15.051Z,23.75
2024-05-09T10:29:19.643Z,23.25
2024-05-09T10:30:29.809Z,22.87
2024-05-09T10:31:40.016Z,22.54
2024-05-09T10:32:42.732Z,22.09
2024-05-09T10:33:51.931Z,22.59
2024-05-09T10:35:12.455Z,21.87
2024-05-09T10:36:19.676Z,21.77
2024-05-09T10:37:22.869Z,22.25
2024-05-09T10:38:25.940Z,21.77
2024-05-09T10:39:35.385Z,21.86
2024-05-09T10:40:39.100Z,21.40
2024-05-09T10:41:41.601Z,21.46
2024-05-09T10:42:44.349Z,20.94
2024-05-09T10:43:47.641Z,21.14
2024-05-09T10:44:50.197Z,22.52
2024-05-09T10:45:52.769Z,25.09
2024-05-09T10:46:55.920Z,24.27
2024-05-09T10:47:58.590Z,24.23
2024-05-09T10:49:04.212Z,22.46
2024-05-09T10:50:18.021Z,22.23
2024-05-09T10:51:25.519Z,24.63
2024-05-09T10:52:27.972Z,23.70
2024-05-09T10:53:31.272Z,23.46
2024-05-09T10:54:37.856Z,23.96
2024-05-09T10:55:40.180Z,24.10
2024-05-09T10:56:42.765Z,23.80
2024-05-09T10:57:45.178Z,23.86
2024-05-09T10:58:48.006Z,22.65
2024-05-09T10:59:51.154Z,21.80
2024-05-09T11:00:56.496Z,22.00
2024-05-09T11:01:59.593Z,21.65
2024-05-09T11:03:02.530Z,21.86
2024-05-09T11:04:06.131Z,22.34
2024-05-09T11:05:09.163Z,20.91
2024-05-09T11:06:12.212Z,20.64
2024-05-09T11:07:21.410Z,20.89
2024-05-09T11:08:25.021Z,20.85
2024-05-09T11:09:27.630Z,20.90
2024-05-09T11:10:33.979Z,20.69
2024-05-09T11:11:37.071Z,20.97
2024-05-09T11:12:39.642Z,21.00
2024-05-09T11:13:42.593Z,21.05
2024-05-09T11:14:54.968Z,21.85
2024-05-09T11:15:57.384Z,21.28
2024-05-09T11:17:06.005Z,21.78
2024-05-09T11:18:09.277Z,21.93
2024-05-09T11:19:15.429Z,21.87
2024-05-09T11:20:26.426Z,21.43
2024-05-09T11:21:31.877Z,21.60
2024-05-09T11:22:34.346Z,22.13
2024-05-09T11:23:36.701Z,22.05
2024-05-09T11:24:39.213Z,22.39
2024-05-09T11:25:41.763Z,22.65
2024-05-09T11:26:44.044Z,22.77
2024-05-09T11:27:46.443Z,22.74
2024-05-09T11:28:50.188Z,22.81
2024-05-09T11:29:52.570Z,23.11
2024-05-09T11:31:09.210Z,22.98
2024-05-09T11:32:14.926Z,23.19
2024-05-09T11:33:19.656Z,22.98
2024-05-09T11:34:22.174Z,22.67
2024-05-09T11:35:26.522Z,22.36
2024-05-09T11:36:29.018Z,22.55
2024-05-09T11:37:35.290Z,22.29
2024-05-09T11:38:38.432Z,22.75
2024-05-09T11:39:40.826Z,22.38
2024-05-09T11:40:43.350Z,22.23
2024-05-09T11:41:45.949Z,22.32
2024-05-09T11:42:50.822Z,22.56
2024-05-09T11:43:54.798Z,23.13
2024-05-09T11:44:57.406Z,22.95
2024-05-09T11:46:00.654Z,23.05
2024-05-09T11:47:04.469Z,22.31
2024-05-09T11:48:07.373Z,22.28
2024-05-09T11:49:10.323Z,22.30
2024-05-09T11:50:19.591Z,22.10
2024-05-09T11:51:29.470Z,22.77
2024-05-09T11:52:32.094Z,22.20
2024-05-09T11:53:34.567Z,22.12
2024-05-09T11:54:36.995Z,22.39
2024-05-09T11:55:39.440Z,22.40
2024-05-09T11:56:41.771Z,22.36
2024-05-09T11:57:44.117Z,21.73
2024-05-09T11:58:46.432Z,22.55
2024-05-09T11:59:48.864Z,22.98
2024-05-09T12:00:51.401Z,22.72
2024-05-09T12:01:54.001Z,22.67
2024-05-09T12:02:58.769Z,22.21
2024-05-09T12:04:01.692Z,22.34
2024-05-09T12:05:04.742Z,22.59
2024-05-09T12:06:07.295Z,22.40
2024-05-09T12:07:12.733Z,22.40
2024-05-09T12:08:15.314Z,22.67
2024-05-09T12:09:18.121Z,22.93
2024-05-09T12:10:26.045Z,22.97
2024-05-09T12:11:33.708Z,22.68
2024-05-09T12:12:37.239Z,22.48
2024-05-09T12:13:40.446Z,22.27
2024-05-09T12:14:42.930Z,22.20
2024-05-09T12:15:45.387Z,22.23
2024-05-09T12:16:47.869Z,22.43
2024-05-09T12:17:51.080Z,22.58
2024-05-09T12:18:53.610Z,22.61
2024-05-09T12:19:56.109Z,22.54
2024-05-09T12:20:58.628Z,22.51
2024-05-09T12:22:00.973Z,22.48
2024-05-09T12:23:03.395Z,22.40
2024-05-09T12:24:06.011Z,22.41
2024-05-09T12:25:08.703Z,21.80
2024-05-09T12:26:11.688Z,22.01
2024-05-09T12:27:14.049Z,21.93
2024-05-09T12:28:17.196Z,21.96
2024-05-09T12:29:19.667Z,21.51
2024-05-09T12:30:32.642Z,21.74
2024-05-09T12:31:39.864Z,21.42
2024-05-09T12:32:42.333Z,21.27
2024-05-09T12:33:44.801Z,21.74
2024-05-09T12:34:47.319Z,21.27
2024-05-09T12:35:51.088Z,21.43
2024-05-09T12:36:53.777Z,21.72
2024-05-09T12:37:56.554Z,21.42
2024-05-09T12:38:59.081Z,21.63
2024-05-09T12:40:01.447Z,21.79
2024-05-09T12:41:04.118Z,21.45
2024-05-09T12:42:06.655Z,21.42
2024-05-09T12:43:10.520Z,22.06
2024-05-09T12:44:13.768Z,22.06
2024-05-09T12:45:16.190Z,21.47
2024-05-09T12:46:20.285Z,21.66
2024-05-09T12:47:22.823Z,21.34
2024-05-09T12:48:25.472Z,21.49
2024-05-09T12:49:28.217Z,21.32
2024-05-09T12:50:33.358Z,21.57
2024-05-09T12:51:36.910Z,21.64
2024-05-09T12:52:39.391Z,21.59
2024-05-09T12:53:41.757Z,21.84
2024-05-09T12:54:44.161Z,21.70
2024-05-09T12:55:53.595Z,21.52
2024-05-09T12:56:59.994Z,21.53
2024-05-09T12:58:02.438Z,21.30
2024-05-09T12:59:04.928Z,20.90
2024-05-09T13:00:14.183Z,21.37
2024-05-09T13:01:22.633Z,21.82
2024-05-09T13:02:25.253Z,21.97
2024-05-09T13:03:28.001Z,21.53
2024-05-09T13:04:30.635Z,21.72
2024-05-09T13:05:33.479Z,21.77
2024-05-09T13:06:36.215Z,21.36
2024-05-09T13:07:38.632Z,21.19
2024-05-09T13:08:41.284Z,21.26
2024-05-09T13:09:43.651Z,21.40
2024-05-09T13:10:46.513Z,21.75
2024-05-09T13:11:49.018Z,22.29
2024-05-09T13:12:51.589Z,22.37
2024-05-09T13:13:54.000Z,22.44
2024-05-09T13:14:56.365Z,22.40
2024-05-09T13:15:58.835Z,22.27
2024-05-09T13:17:01.404Z,22.42
2024-05-09T13:18:07.754Z,22.09
2024-05-09T13:19:10.323Z,22.05
2024-05-09T13:20:19.001Z,21.90
2024-05-09T13:21:28.701Z,21.97
2024-05-09T13:22:31.202Z,22.32
2024-05-09T13:23:33.575Z,22.44
2024-05-09T13:24:36.048Z,22.58
2024-05-09T13:25:38.471Z,22.49
2024-05-09T13:26:40.951Z,22.53
2024-05-09T13:27:43.320Z,22.67
2024-05-09T13:28:45.625Z,22.65
2024-05-09T13:29:47.887Z,22.49
2024-05-09T13:30:50.208Z,22.37
2024-05-09T13:31:52.773Z,21.88
2024-05-09T13:32:55.855Z,21.42
2024-05-09T13:33:58.457Z,21.39
2024-05-09T13:35:00.992Z,21.52
2024-05-09T13:36:03.476Z,21.56
2024-05-09T13:37:06.024Z,21.86
2024-05-09T13:38:08.508Z,22.17
2024-05-09T13:39:10.923Z,21.75
2024-05-09T13:40:14.532Z,21.27
2024-05-09T13:41:16.979Z,21.08
2024-05-09T13:42:19.282Z,20.90
2024-05-09T13:43:23.354Z,21.33
2024-05-09T13:44:25.927Z,21.87
2024-05-09T13:45:28.362Z,22.13